Time;durP1;ratioP1;P1;durP2;ratioP2;P2;SDS_P1;SDS_P2;PMS_P1;PMS_P2;Temp;Humidity;BMP_temperature;BMP_pressure;BME280_temperature;BME280_humidity;BME280_pressure;Samples;Min_cycle;Max_cycle;Signal;HPM_P1;HPM_P2
2023/10/10 00:01:02;;;;;;;1047.90;962.90;;;12.20;99.90;;;;;;5114399;28;20449;-76
2023/10/10 00:03:31;;;;;;;1054.10;968.47;;;12.10;99.90;;;;;;5114194;28;20815;-77
2023/10/10 00:06:00;;;;;;;1054.50;968.77;;;12.10;99.90;;;;;;5114529;28;20447;-76
2023/10/10 00:08:33;;;;;;;1073.17;985.40;;;12.10;99.90;;;;;;5114033;28;20542;-77
2023/10/10 00:11:08;;;;;;;1071.57;982.07;;;12.00;99.90;;;;;;5113940;28;20450;-77
2023/10/10 00:13:42;;;;;;;1065.90;975.27;;;12.00;99.90;;;;;;5114051;28;20515;-77
2023/10/10 00:16:10;;;;;;;1081.63;989.90;;;11.90;99.90;;;;;;5113998;28;20551;-77
2023/10/10 00:18:43;;;;;;;1077.87;986.07;;;11.90;99.90;;;;;;5114096;28;20551;-76
2023/10/10 00:21:20;;;;;;;1084.40;992.13;;;11.90;99.90;;;;;;5113838;28;20476;-76
2023/10/10 00:23:48;;;;;;;1074.63;981.53;;;11.90;99.90;;;;;;5113619;28;20452;-77
2023/10/10 00:26:15;;;;;;;1076.13;980.87;;;11.80;99.90;;;;;;5113572;28;20463;-76
2023/10/10 00:28:45;;;;;;;1072.33;977.10;;;11.80;99.90;;;;;;5113823;28;20448;-76
2023/10/10 00:31:17;;;;;;;1075.83;980.20;;;11.80;99.90;;;;;;5113525;28;20472;-76
2023/10/10 00:33:45;;;;;;;1074.80;978.20;;;11.80;99.90;;;;;;5112955;28;20555;-77
2023/10/10 00:36:18;;;;;;;1072.40;974.40;;;11.80;99.90;;;;;;5113681;28;20447;-76
2023/10/10 00:38:49;;;;;;;1080.73;981.97;;;11.80;99.90;;;;;;5113479;28;20956;-76
2023/10/10 00:41:16;;;;;;;1071.90;972.70;;;11.80;99.90;;;;;;5113421;28;20469;-77
2023/10/10 00:43:43;;;;;;;1082.87;982.73;;;11.80;99.90;;;;;;5113331;28;20448;-76
2023/10/10 00:46:11;;;;;;;1077.87;977.27;;;11.80;99.90;;;;;;5113270;28;20948;-77
2023/10/10 00:48:39;;;;;;;1078.80;977.63;;;11.80;99.90;;;;;;5113147;28;20961;-76
2023/10/10 00:51:06;;;;;;;1074.30;971.30;;;11.80;99.90;;;;;;5113111;28;20454;-77
2023/10/10 00:53:36;;;;;;;1078.60;975.13;;;11.80;99.90;;;;;;5113163;28;20474;-76
2023/10/10 00:56:06;;;;;;;1076.07;975.03;;;11.80;99.90;;;;;;5113092;28;20451;-76
2023/10/10 00:58:37;;;;;;;1080.47;976.83;;;11.80;99.90;;;;;;5113275;28;20444;-76
2023/10/10 01:01:08;;;;;;;1053.90;949.83;;;11.90;99.90;;;;;;5112929;28;20450;-77
2023/10/10 01:03:35;;;;;;;1056.20;953.10;;;12.10;99.90;;;;;;5113206;28;20504;-77
2023/10/10 01:06:07;;;;;;;1064.97;964.83;;;12.10;99.90;;;;;;5112960;28;20444;-76
2023/10/10 01:08:59;;;;;;;1070.97;970.57;;;12.10;99.90;;;;;;5113165;28;20456;-76
2023/10/10 01:11:29;;;;;;;1064.53;966.17;;;12.10;99.90;;;;;;5109075;28;20929;-77
2023/10/10 01:13:56;;;;;;;1067.93;969.33;;;12.00;99.90;;;;;;5113170;28;20471;-76
2023/10/10 01:16:25;;;;;;;1068.97;971.30;;;11.90;99.90;;;;;;5113184;28;20455;-75
2023/10/10 01:18:57;;;;;;;1064.87;967.47;;;11.90;99.90;;;;;;5112757;28;21013;-76
2023/10/10 01:21:43;;;;;;;1065.27;964.13;;;11.80;99.90;;;;;;5112776;28;20455;-76
2023/10/10 01:24:11;;;;;;;1060.70;957.70;;;11.80;99.90;;;;;;5112857;28;20448;-76
2023/10/10 01:26:44;;;;;;;1068.17;963.63;;;11.80;99.90;;;;;;5112627;28;20458;-76
2023/10/10 01:29:21;;;;;;;1067.13;963.30;;;11.80;99.90;;;;;;5112832;28;20451;-76
2023/10/10 01:31:48;;;;;;;1064.00;960.37;;;11.80;99.90;;;;;;5112568;28;20543;-76
2023/10/10 01:34:30;;;;;;;1061.37;956.77;;;11.70;99.90;;;;;;5112512;28;20452;-76
2023/10/10 01:37:02;;;;;;;1065.10;961.30;;;11.70;99.90;;;;;;5112717;28;20520;-76
2023/10/10 01:39:41;;;;;;;1067.00;962.03;;;11.70;99.90;;;;;;5112805;28;20462;-76
2023/10/10 01:42:11;;;;;;;1056.63;952.50;;;11.70;99.90;;;;;;5112641;28;20541;-76
2023/10/10 01:44:38;;;;;;;1061.73;958.10;;;11.70;99.90;;;;;;5115760;28;20632;-76
2023/10/10 01:47:18;;;;;;;1063.87;961.20;;;11.70;99.90;;;;;;5116760;28;20457;-76
2023/10/10 01:49:46;;;;;;;1063.70;960.10;;;11.70;99.90;;;;;;5116888;28;20454;-76
2023/10/10 01:52:17;;;;;;;1063.23;959.83;;;11.70;99.90;;;;;;5116491;28;20471;-77
2023/10/10 01:54:46;;;;;;;1059.03;954.23;;;11.70;99.90;;;;;;5116531;28;20455;-76
2023/10/10 01:57:21;;;;;;;1063.13;958.20;;;11.60;99.90;;;;;;5116498;28;20824;-76
2023/10/10 01:59:48;;;;;;;1052.43;947.33;;;11.70;99.90;;;;;;5116585;28;20997;-76
2023/10/10 02:02:16;;;;;;;1060.10;953.20;;;11.70;99.90;;;;;;5116373;28;20530;-76
2023/10/10 02:04:44;;;;;;;1061.03;954.07;;;11.70;99.90;;;;;;5116428;28;20503;-76
2023/10/10 02:07:22;;;;;;;1065.07;959.87;;;11.70;99.90;;;;;;5116401;28;20446;-76
2023/10/10 02:10:00;;;;;;;1068.00;962.90;;;11.70;99.90;;;;;;5116215;28;20823;-76
2023/10/10 02:12:27;;;;;;;1062.00;959.33;;;11.70;99.90;;;;;;5116408;28;20475;-76
2023/10/10 02:14:54;;;;;;;1059.77;958.83;;;11.70;99.90;;;;;;5116221;28;20452;-76
2023/10/10 02:17:26;;;;;;;1070.37;967.70;;;11.60;99.90;;;;;;5116336;28;20455;-76
2023/10/10 02:20:17;;;;;;;1053.57;947.10;;;11.50;99.90;;;;;;5116236;28;20450;-75
2023/10/10 02:22:49;;;;;;;1053.27;942.23;;;11.50;99.90;;;;;;5116141;28;20858;-76
2023/10/10 02:25:37;;;;;;;1041.13;930.47;;;11.60;99.90;;;;;;5116295;28;20823;-76
2023/10/10 02:28:19;;;;;;;1037.17;926.57;;;11.60;99.90;;;;;;5116040;28;20458;-76
2023/10/10 02:30:51;;;;;;;1054.03;942.20;;;11.60;99.90;;;;;;5115887;28;20450;-76
2023/10/10 02:33:27;;;;;;;1046.37;933.80;;;11.60;99.90;;;;;;5115936;28;20475;-76
2023/10/10 02:35:57;;;;;;;1048.40;934.50;;;11.60;99.90;;;;;;5116018;28;20434;-76
2023/10/10 02:38:31;;;;;;;1052.47;936.77;;;11.70;99.90;;;;;;5116058;28;20446;-76
2023/10/10 02:41:15;;;;;;;1052.30;937.00;;;11.70;99.90;;;;;;5115732;28;20957;-76
2023/10/10 02:43:55;;;;;;;1053.17;937.00;;;11.70;99.90;;;;;;5115823;28;20447;-76
2023/10/10 02:46:33;;;;;;;1056.30;933.47;;;11.70;99.90;;;;;;5115581;28;20860;-76
2023/10/10 02:49:12;;;;;;;1052.03;933.33;;;11.70;99.90;;;;;;5115691;28;20529;-75
2023/10/10 02:51:41;;;;;;;1052.43;927.67;;;11.70;99.90;;;;;;5115732;28;20922;-75
2023/10/10 02:54:28;;;;;;;1048.50;932.63;;;11.70;99.90;;;;;;5115430;28;20519;-75
2023/10/10 02:56:57;;;;;;;1046.67;931.17;;;11.70;99.90;;;;;;5115520;28;20806;-75
2023/10/10 02:59:31;;;;;;;1047.80;933.43;;;11.70;99.90;;;;;;5115433;28;20918;-76
2023/10/10 03:02:00;;;;;;;1048.43;933.67;;;11.60;99.90;;;;;;5115367;28;20455;-75
2023/10/10 03:04:52;;;;;;;1049.07;934.70;;;11.60;99.90;;;;;;5115224;28;20449;-75
2023/10/10 03:07:27;;;;;;;1058.57;943.07;;;11.60;99.90;;;;;;5115592;28;20454;-75
2023/10/10 03:12:41;;;;;;;1045.33;931.13;;;11.50;99.90;;;;;;5115124;28;20835;-76
2023/10/10 03:15:14;;;;;;;1046.57;933.53;;;11.50;99.90;;;;;;5115084;28;20455;-76
2023/10/10 03:17:48;;;;;;;1048.70;936.20;;;11.40;99.90;;;;;;5115380;28;20454;-76
2023/10/10 03:20:25;;;;;;;1050.50;937.83;;;11.40;99.90;;;;;;5115075;28;21033;-75
2023/10/10 03:23:23;;;;;;;1047.17;936.40;;;11.40;99.90;;;;;;5114856;28;20443;-75
2023/10/10 03:25:54;;;;;;;1053.60;938.70;;;11.30;99.90;;;;;;5115207;28;20458;-76
2023/10/10 03:28:29;;;;;;;1046.37;931.47;;;11.20;99.90;;;;;;5114961;28;20496;-76
2023/10/10 03:31:07;;;;;;;1044.57;921.00;;;11.20;99.90;;;;;;5114789;28;20454;-75
2023/10/10 03:33:43;;;;;;;1035.80;921.13;;;11.30;99.90;;;;;;5114688;28;20918;-75
2023/10/10 03:36:30;;;;;;;1040.87;925.70;;;11.30;99.90;;;;;;5115007;28;20458;-76
2023/10/10 03:39:25;;;;;;;1035.10;920.87;;;11.30;99.90;;;;;;5114911;28;20960;-76
2023/10/10 05:23:54;;;;;;;1027.33;920.70;;;11.10;99.90;;;;;;5112838;28;20467;-76
2023/10/10 05:26:20;;;;;;;1032.50;926.60;;;11.00;99.90;;;;;;5112685;28;20553;-76
2023/10/10 05:28:49;;;;;;;1018.87;914.30;;;11.00;99.90;;;;;;5112425;28;20441;-76
2023/10/10 05:31:19;;;;;;;1019.97;915.30;;;10.90;99.90;;;;;;5112297;28;20454;-76
2023/10/10 05:33:48;;;;;;;1033.47;927.87;;;10.90;99.90;;;;;;5112615;28;20475;-76
2023/10/10 05:36:18;;;;;;;1027.70;922.17;;;10.90;99.90;;;;;;5112487;28;20444;-76
2023/10/10 05:38:46;;;;;;;1000.00;896.03;;;10.90;99.90;;;;;;5112275;28;20968;-76
2023/10/10 05:41:14;;;;;;;1026.80;921.60;;;10.90;99.90;;;;;;5112481;28;20460;-76
2023/10/10 05:43:41;;;;;;;1007.97;904.20;;;10.90;99.90;;;;;;5112621;28;20449;-76
2023/10/10 05:46:08;;;;;;;1014.20;910.40;;;10.90;99.90;;;;;;5112629;28;20448;-76
2023/10/10 05:48:35;;;;;;;1019.40;916.30;;;10.90;99.90;;;;;;5112354;28;20448;-76
2023/10/10 05:51:03;;;;;;;1014.50;911.60;;;10.90;99.90;;;;;;5111931;28;20463;-76
2023/10/10 05:53:32;;;;;;;1004.37;902.73;;;10.90;99.90;;;;;;5112162;28;20578;-76
2023/10/10 05:56:12;;;;;;;1008.23;904.10;;;10.90;99.90;;;;;;5112594;28;20867;-76
2023/10/10 05:58:42;;;;;;;1013.17;908.23;;;10.90;99.90;;;;;;5112819;28;20505;-76
2023/10/10 06:01:13;;;;;;;1003.13;900.30;;;10.90;99.90;;;;;;5112178;28;20928;-76
2023/10/10 06:03:41;;;;;;;1011.80;909.37;;;10.90;99.90;;;;;;5112137;28;20446;-76
2023/10/10 06:06:11;;;;;;;1008.57;905.87;;;10.90;99.90;;;;;;5112723;28;20540;-76
2023/10/10 06:08:41;;;;;;;1000.63;897.27;;;10.90;99.90;;;;;;5112429;28;20452;-76
2023/10/10 06:11:09;;;;;;;1015.20;912.23;;;10.90;99.90;;;;;;5112380;28;20452;-76
2023/10/10 06:13:39;;;;;;;1020.93;917.30;;;10.90;99.90;;;;;;5112179;28;20891;-79
2023/10/10 06:16:09;;;;;;;1002.33;899.40;;;11.00;99.90;;;;;;5112315;28;20942;-76
2023/10/10 06:18:36;;;;;;;1014.60;911.33;;;11.00;99.90;;;;;;5112305;28;20446;-76
2023/10/10 06:21:07;;;;;;;1009.87;906.90;;;11.10;99.90;;;;;;5112283;28;20544;-76
2023/10/10 06:23:35;;;;;;;1016.87;912.60;;;11.20;99.90;;;;;;5112136;28;20928;-76
2023/10/10 06:26:02;;;;;;;997.03;893.60;;;11.30;99.90;;;;;;5112125;28;20883;-76
2023/10/10 06:28:35;;;;;;;1000.13;898.07;;;11.40;99.90;;;;;;5112166;28;20485;-76
2023/10/10 06:31:09;;;;;;;993.50;892.73;;;11.40;99.90;;;;;;5114069;28;20457;-76
2023/10/10 06:33:40;;;;;;;997.73;897.83;;;11.50;99.90;;;;;;5115889;28;20477;-76
2023/10/10 06:36:32;;;;;;;1003.60;906.23;;;11.60;99.90;;;;;;5116147;28;20488;-76
2023/10/10 06:41:47;;;;;;;1019.20;922.83;;;11.70;99.90;;;;;;5094339;28;20509;-76
2023/10/10 06:44:14;;;;;;;1015.67;919.70;;;11.80;99.90;;;;;;5094662;28;20452;-76
2023/10/10 06:46:41;;;;;;;1013.80;919.13;;;11.80;99.90;;;;;;5095070;28;20834;-76
2023/10/10 06:49:12;;;;;;;1004.00;910.10;;;12.00;99.90;;;;;;5094825;28;20442;-76
2023/10/10 06:51:40;;;;;;;988.93;896.97;;;12.00;99.90;;;;;;5095127;28;21001;-76
2023/10/10 06:54:08;;;;;;;1007.20;915.30;;;12.10;99.90;;;;;;5094702;28;20531;-76
2023/10/10 06:56:54;;;;;;;998.27;906.93;;;12.20;99.90;;;;;;5094861;28;20481;-76
2023/10/10 06:59:27;;;;;;;1001.27;910.60;;;12.30;99.90;;;;;;5094693;28;20454;-76
2023/10/10 07:01:54;;;;;;;996.70;908.07;;;12.40;99.90;;;;;;5094488;28;20449;-76
2023/10/10 07:04:23;;;;;;;999.70;912.80;;;12.60;99.90;;;;;;5094581;28;20454;-76
2023/10/10 07:06:51;;;;;;;998.87;913.57;;;12.70;99.90;;;;;;5094700;28;20861;-76
2023/10/10 07:09:27;;;;;;;997.93;914.47;;;12.90;99.90;;;;;;5094347;28;20453;-76
2023/10/10 07:11:55;;;;;;;978.07;898.10;;;13.00;99.90;;;;;;5094402;28;20456;-76
2023/10/10 07:14:24;;;;;;;973.33;894.73;;;13.10;99.90;;;;;;5094062;28;20506;-76
2023/10/10 07:16:54;;;;;;;978.20;902.57;;;13.30;99.90;;;;;;5094783;28;20447;-76
2023/10/10 07:19:27;;;;;;;953.67;882.03;;;13.40;99.90;;;;;;5094891;28;20454;-78
2023/10/10 07:21:53;;;;;;;945.37;875.27;;;13.40;99.90;;;;;;5094552;28;20522;-77
2023/10/10 07:24:28;;;;;;;941.07;871.90;;;13.50;99.90;;;;;;5094071;28;20971;-75
2023/10/10 07:27:04;;;;;;;930.70;865.40;;;13.60;99.90;;;;;;5094415;28;20934;-76
2023/10/10 07:29:57;;;;;;;928.97;865.70;;;13.70;99.90;;;;;;5094635;28;20994;-76
2023/10/10 07:32:27;;;;;;;919.70;857.00;;;13.80;99.90;;;;;;5093421;28;20451;-76
2023/10/10 07:34:58;;;;;;;916.30;854.03;;;13.80;99.90;;;;;;5112271;28;20504;-75
2023/10/10 07:37:29;;;;;;;908.80;847.33;;;13.90;99.90;;;;;;5114623;28;20506;-75
2023/10/10 07:39:57;;;;;;;904.53;844.37;;;14.00;99.90;;;;;;5114539;28;20459;-75
2023/10/10 07:42:29;;;;;;;887.73;828.20;;;14.10;99.90;;;;;;5114019;28;20446;-75
2023/10/10 07:44:56;;;;;;;874.60;817.50;;;14.20;99.90;;;;;;5114209;28;20445;-75
2023/10/10 07:47:26;;;;;;;878.63;822.93;;;14.30;99.90;;;;;;5113996;28;20455;-75
2023/10/10 07:49:55;;;;;;;867.40;812.60;;;14.40;99.90;;;;;;5113946;28;20497;-75
2023/10/10 07:52:23;;;;;;;852.00;799.20;;;14.50;99.90;;;;;;5114202;28;20867;-75
2023/10/10 07:54:54;;;;;;;846.00;792.90;;;14.60;99.90;;;;;;5113557;28;20563;-76
2023/10/10 07:57:26;;;;;;;831.03;779.87;;;14.70;99.90;;;;;;5113810;28;20622;-75
2023/10/10 07:59:56;;;;;;;829.20;779.80;;;14.80;99.90;;;;;;5114277;28;20943;-76
2023/10/10 08:02:31;;;;;;;834.93;785.13;;;15.00;99.90;;;;;;5114107;28;20489;-76
2023/10/10 08:05:09;;;;;;;819.73;772.03;;;15.20;99.90;;;;;;5114221;28;20475;-76
2023/10/10 08:07:36;;;;;;;713.53;678.40;;;15.30;99.90;;;;;;5114404;28;20544;-75
2023/10/10 08:10:13;;;;;;;731.53;695.50;;;15.50;99.90;;;;;;5114100;28;20455;-75
2023/10/10 08:12:41;;;;;;;732.03;695.57;;;15.60;99.90;;;;;;5114585;28;20449;-76
2023/10/10 08:15:19;;;;;;;632.13;603.70;;;15.80;99.90;;;;;;5113902;28;20571;-75
2023/10/10 08:17:52;;;;;;;572.80;548.60;;;15.90;99.90;;;;;;5113981;28;20480;-75
2023/10/10 08:21:07;;;;;;;476.70;457.80;;;16.00;99.90;;;;;;5114401;28;20429;-75
2023/10/10 08:23:24;;;;;;;435.40;418.97;;;16.10;99.90;;;;;;5113499;28;20440;-75
2023/10/10 08:25:51;;;;;;;416.87;401.37;;;16.30;99.90;;;;;;5113973;28;20456;-75
2023/10/10 08:28:21;;;;;;;423.80;407.63;;;16.40;99.90;;;;;;5113941;28;20444;-75
2023/10/10 08:30:48;;;;;;;357.93;344.53;;;16.60;99.90;;;;;;5113777;28;20527;-75
2023/10/10 08:33:15;;;;;;;278.57;268.87;;;16.80;99.90;;;;;;5113700;28;20817;-75
2023/10/10 08:35:43;;;;;;;231.50;223.03;;;17.00;99.90;;;;;;5113472;28;20476;-75
2023/10/10 08:38:13;;;;;;;156.73;150.27;;;17.20;99.90;;;;;;5113545;28;20483;-75
2023/10/10 08:40:41;;;;;;;133.13;127.13;;;17.40;99.90;;;;;;5113683;28;20444;-75
2023/10/10 08:43:09;;;;;;;92.47;87.67;;;17.60;99.90;;;;;;5113365;28;20448;-75
2023/10/10 08:45:43;;;;;;;34.97;32.13;;;17.90;99.90;;;;;;5113758;28;20463;-75
2023/10/10 08:48:13;;;;;;;42.53;39.53;;;18.10;99.90;;;;;;5112102;28;20439;-75
2023/10/10 08:50:40;;;;;;;19.10;16.57;;;18.50;99.90;;;;;;5113005;28;20198;-76
2023/10/10 08:53:12;;;;;;;16.53;12.73;;;18.90;99.90;;;;;;5112844;28;20452;-75
2023/10/10 08:55:40;;;;;;;14.77;11.40;;;19.30;99.90;;;;;;5113832;28;20480;-75
2023/10/10 08:58:08;;;;;;;18.73;12.33;;;19.60;95.00;;;;;;5114056;28;20817;-75
2023/10/10 09:00:35;;;;;;;19.77;12.23;;;19.90;95.10;;;;;;5113837;28;20863;-74
2023/10/10 09:03:02;;;;;;;22.70;12.50;;;20.10;93.70;;;;;;5113669;28;20470;-74
2023/10/10 09:05:29;;;;;;;24.30;9.30;;;20.30;90.10;;;;;;5113540;28;20445;-74
2023/10/10 09:08:05;;;;;;;17.50;11.20;;;20.50;86.50;;;;;;5113597;28;20789;-74
2023/10/10 09:10:39;;;;;;;23.30;10.87;;;20.70;86.70;;;;;;5113809;28;20541;-74
2023/10/10 09:13:07;;;;;;;15.33;10.53;;;20.80;86.80;;;;;;5113594;28;20452;-74
2023/10/10 09:15:35;;;;;;;17.33;10.20;;;21.00;86.90;;;;;;5113417;28;20479;-74
2023/10/10 09:18:17;;;;;;;14.53;9.00;;;21.00;86.70;;;;;;5113420;28;20476;-74
2023/10/10 09:20:45;;;;;;;15.53;10.10;;;21.20;79.30;;;;;;5113503;28;20965;-74
2023/10/10 09:23:22;;;;;;;21.03;11.00;;;21.40;74.00;;;;;;5113404;28;20444;-74
2023/10/10 09:26:09;;;;;;;24.80;10.27;;;21.60;74.40;;;;;;5113472;28;20846;-74
2023/10/10 09:28:46;;;;;;;17.73;10.50;;;21.80;75.90;;;;;;5113182;28;20531;-74
2023/10/10 09:31:20;;;;;;;19.40;10.20;;;22.10;72.00;;;;;;5113241;28;20444;-74
2023/10/10 09:33:50;;;;;;;15.33;10.00;;;22.30;73.00;;;;;;5113185;28;20451;-74
2023/10/10 09:36:19;;;;;;;21.17;10.40;;;22.40;72.30;;;;;;5113211;28;20456;-74
2023/10/10 09:38:48;;;;;;;17.43;9.03;;;22.40;67.60;;;;;;5112881;28;20505;-74
2023/10/10 09:41:27;;;;;;;17.00;8.70;;;22.70;64.30;;;;;;5113214;28;20984;-74
2023/10/10 09:47:13;;;;;;;22.20;10.70;;;22.90;64.50;;;;;;5112901;28;20441;-74
2023/10/10 09:49:43;;;;;;;14.63;10.07;;;23.10;64.60;;;;;;5112971;28;20440;-74
2023/10/10 09:55:06;;;;;;;17.45;10.20;;;23.60;56.60;;;;;;5112789;28;20929;-75
2023/10/10 09:57:39;;;;;;;16.17;9.97;;;23.80;56.90;;;;;;5113336;28;20261;-74
2023/10/10 10:00:14;;;;;;;19.67;8.80;;;23.70;56.60;;;;;;5113020;28;20444;-75
2023/10/10 10:02:43;;;;;;;18.33;9.40;;;23.80;53.80;;;;;;5112944;28;20542;-73
2023/10/10 10:05:16;;;;;;;17.93;9.90;;;24.00;48.10;;;;;;5115318;28;20491;-74
2023/10/10 10:07:57;;;;;;;19.93;9.00;;;24.30;57.20;;;;;;5117237;28;20429;-75
2023/10/10 10:10:48;;;;;;;20.97;11.30;;;24.50;48.60;;;;;;5116888;28;20436;-74
2023/10/10 10:13:37;;;;;;;19.43;11.03;;;24.70;46.90;;;;;;5117282;28;20544;-74
2023/10/10 10:16:19;;;;;;;14.70;9.40;;;25.00;49.00;;;;;;5116965;28;20525;-74
2023/10/10 10:18:52;;;;;;;15.60;9.97;;;25.10;40.00;;;;;;5116891;28;20448;-74
2023/10/10 10:21:30;;;;;;;15.57;8.53;;;25.30;40.20;;;;;;5117028;28;20490;-75
2023/10/10 10:24:15;;;;;;;14.30;8.63;;;25.30;35.50;;;;;;5116564;28;20935;-75
2023/10/10 10:26:45;;;;;;;18.83;8.60;;;25.50;31.10;;;;;;5115989;28;20490;-75
2023/10/10 10:29:28;;;;;;;15.07;8.37;;;25.60;32.10;;;;;;5116137;28;20590;-75
2023/10/10 10:32:01;;;;;;;18.67;7.67;;;26.10;29.20;;;;;;5116169;28;20455;-75
2023/10/10 10:34:35;;;;;;;13.63;7.63;;;26.60;28.40;;;;;;5115674;28;20550;-75
2023/10/10 10:37:13;;;;;;;12.20;6.47;;;27.00;24.40;;;;;;5116413;28;20448;-75
2023/10/10 10:40:09;;;;;;;22.20;7.10;;;26.70;16.90;;;;;;5116601;28;20486;-75
2023/10/10 10:42:34;;;;;;;11.37;6.03;;;27.30;17.00;;;;;;5116147;28;20444;-75
2023/10/10 10:45:33;;;;;;;12.77;5.73;;;26.90;9.20;;;;;;5116503;28;20521;-75
2023/10/10 10:48:05;;;;;;;18.33;6.63;;;26.80;9.10;;;;;;5116382;28;20494;-75
2023/10/10 10:50:45;;;;;;;11.50;5.67;;;27.00;12.80;;;;;;5116421;27;20444;-74
2023/10/10 10:59:11;;;;;;;10.07;4.70;;;26.60;9.00;;;;;;5116136;28;20909;-74
2023/10/10 11:01:42;;;;;;;13.27;6.87;;;26.60;9.00;;;;;;5114741;28;20455;-72
2023/10/10 11:04:18;;;;;;;15.30;5.90;;;26.30;8.80;;;;;;5093908;28;20494;-72
2023/10/10 11:06:51;;;;;;;14.17;6.20;;;26.60;9.00;;;;;;5093609;28;21007;-73
2023/10/10 11:09:28;;;;;;;15.43;6.07;;;27.50;6.80;;;;;;5093625;28;21037;-72
2023/10/10 11:12:02;;;;;;;10.63;5.90;;;28.00;1.00;;;;;;5092834;28;20445;-72
2023/10/10 11:14:30;;;;;;;13.40;6.57;;;28.40;2.10;;;;;;5093132;28;20441;-72
2023/10/10 11:16:59;;;;;;;9.57;5.63;;;28.80;1.00;;;;;;5092045;28;20450;-73
2023/10/10 11:19:39;;;;;;;13.50;6.00;;;29.30;1.00;;;;;;5092920;28;20453;-72
2023/10/10 11:22:12;;;;;;;11.30;5.77;;;29.40;1.00;;;;;;5093157;28;20449;-73
2023/10/10 11:24:39;;;;;;;15.90;6.73;;;29.20;1.00;;;;;;5093208;28;20426;-73
2023/10/10 11:27:15;;;;;;;12.93;5.87;;;29.20;1.00;;;;;;5094335;28;20540;-73
2023/10/10 11:29:44;;;;;;;11.07;5.57;;;29.20;1.00;;;;;;5094416;28;20831;-73
2023/10/10 11:32:13;;;;;;;11.37;6.40;;;29.20;1.00;;;;;;5094347;28;20441;-72
2023/10/10 11:34:44;;;;;;;11.27;5.07;;;29.00;1.00;;;;;;5094180;28;20518;-72
2023/10/10 11:37:20;;;;;;;11.67;5.20;;;28.80;1.00;;;;;;5094416;28;20512;-73
2023/10/10 11:39:57;;;;;;;13.10;6.13;;;29.20;1.00;;;;;;5094002;28;20529;-72
2023/10/10 11:42:27;;;;;;;11.03;5.80;;;29.70;1.00;;;;;;5094543;28;20851;-72
2023/10/10 11:45:00;;;;;;;12.03;5.90;;;30.00;1.00;;;;;;5094271;28;20529;-72
2023/10/10 11:47:29;;;;;;;10.60;5.50;;;29.80;1.00;;;;;;5094201;28;20532;-72
2023/10/10 11:50:05;;;;;;;12.40;6.00;;;29.90;1.00;;;;;;5094053;28;20493;-72
2023/10/10 11:52:33;;;;;;;11.23;5.03;;;29.90;1.00;;;;;;5094228;28;20478;-72
2023/10/10 11:55:02;;;;;;;9.00;5.23;;;29.70;1.00;;;;;;5093824;28;20469;-72
2023/10/10 11:57:29;;;;;;;16.20;6.53;;;29.70;1.00;;;;;;5094094;28;20449;-72
2023/10/10 11:59:59;;;;;;;10.67;5.53;;;29.70;1.00;;;;;;5093858;28;20479;-72
2023/10/10 12:02:39;;;;;;;13.95;6.40;;;30.60;1.00;;;;;;5092715;28;20535;-72
2023/10/10 12:05:35;;;;;;;15.70;6.53;;;31.00;1.00;;;;;;5093054;28;20440;-73
2023/10/10 12:08:05;;;;;;;9.20;4.87;;;31.60;1.00;;;;;;5093219;28;20191;-72
2023/10/10 12:10:45;;;;;;;11.53;5.60;;;31.40;1.00;;;;;;5093472;28;20502;-73
2023/10/10 12:13:19;;;;;;;12.10;5.97;;;31.30;1.00;;;;;;5093824;28;20453;-72
2023/10/10 12:15:46;;;;;;;18.50;6.50;;;30.80;1.00;;;;;;5093760;28;20560;-73
2023/10/10 12:18:13;;;;;;;9.40;5.80;;;31.10;1.00;;;;;;5092772;28;20601;-73
2023/10/10 12:20:44;;;;;;;11.10;5.30;;;31.30;1.00;;;;;;5093380;28;20826;-73
2023/10/10 12:23:11;;;;;;;11.10;5.57;;;30.30;1.00;;;;;;5093310;28;20449;-73
2023/10/10 12:25:41;;;;;;;12.73;6.10;;;30.00;1.00;;;;;;5093254;28;20468;-72
2023/10/10 12:28:09;;;;;;;10.47;5.60;;;29.40;1.00;;;;;;5092316;28;20493;-72
2023/10/10 12:30:40;;;;;;;12.53;6.07;;;28.70;1.00;;;;;;5093403;28;20424;-72
2023/10/10 12:33:08;;;;;;;8.37;4.73;;;29.20;1.00;;;;;;5093106;28;20976;-72
2023/10/10 12:35:35;;;;;;;10.67;5.30;;;29.40;1.00;;;;;;5093196;28;20950;-73
2023/10/10 12:38:04;;;;;;;15.40;5.57;;;30.00;1.00;;;;;;5093101;28;20455;-72
2023/10/10 12:40:33;;;;;;;11.33;5.83;;;30.40;1.00;;;;;;5093601;28;20795;-72
2023/10/10 12:43:01;;;;;;;10.40;5.90;;;31.00;1.00;;;;;;5092983;28;20533;-72
2023/10/10 12:45:29;;;;;;;10.80;5.63;;;30.50;1.00;;;;;;5093173;28;20453;-72
2023/10/10 12:47:57;;;;;;;17.03;5.77;;;30.90;1.00;;;;;;5093069;28;20457;-72
2023/10/10 12:50:26;;;;;;;13.47;5.93;;;30.60;1.00;;;;;;5093236;28;20445;-72
2023/10/10 12:53:07;;;;;;;10.60;5.20;;;30.80;1.00;;;;;;5092549;28;20619;-72
2023/10/10 12:55:36;;;;;;;11.00;5.97;;;30.60;1.00;;;;;;5092782;28;20472;-72
2023/10/10 12:58:15;;;;;;;10.83;6.00;;;30.20;1.00;;;;;;5092940;28;20472;-72
2023/10/10 13:00:49;;;;;;;13.50;4.93;;;30.30;1.00;;;;;;5092779;28;20816;-72
2023/10/10 13:03:17;;;;;;;10.50;5.50;;;29.90;1.00;;;;;;5092081;28;20423;-72
2023/10/10 13:05:47;;;;;;;12.53;5.70;;;30.30;1.00;;;;;;5092301;28;20466;-72
2023/10/10 13:08:14;;;;;;;14.45;5.95;;;30.10;1.00;;;;;;5093435;28;20816;-72
2023/10/10 13:10:43;;;;;;;16.70;5.83;;;29.70;1.00;;;;;;5094774;28;20199;-72
2023/10/10 13:13:15;;;;;;;11.73;5.40;;;29.40;1.00;;;;;;5094188;28;20536;-72
2023/10/10 13:15:50;;;;;;;12.67;5.57;;;28.70;1.00;;;;;;5093610;28;20790;-71
2023/10/10 13:18:24;;;;;;;9.37;4.80;;;27.60;1.00;;;;;;5092932;28;20447;-71
2023/10/10 13:20:51;;;;;;;11.03;5.60;;;27.30;1.00;;;;;;5092906;28;20444;-70
2023/10/10 13:23:19;;;;;;;12.43;6.10;;;26.80;1.00;;;;;;5092918;28;20452;-71
2023/10/10 13:25:48;;;;;;;13.23;4.90;;;26.40;1.00;;;;;;5092788;28;20449;-71
2023/10/10 13:28:19;;;;;;;12.33;5.80;;;26.20;1.00;;;;;;5092625;28;20453;-71
2023/10/10 13:30:47;;;;;;;13.10;5.90;;;25.80;1.00;;;;;;5092612;28;20871;-71
2023/10/10 13:33:14;;;;;;;14.30;6.05;;;25.50;1.00;;;;;;5092234;28;20452;-71
2023/10/10 13:35:41;;;;;;;12.33;5.27;;;25.20;1.00;;;;;;5092117;28;20219;-70
2023/10/10 13:38:09;;;;;;;15.17;7.10;;;25.20;1.00;;;;;;5092279;28;20445;-70
2023/10/10 13:40:43;;;;;;;14.17;5.97;;;24.90;1.00;;;;;;5091825;28;20871;-70
2023/10/10 13:43:16;;;;;;;10.73;6.03;;;24.90;1.00;;;;;;5092307;28;20452;-70
2023/10/10 13:45:44;;;;;;;12.73;6.20;;;24.90;1.00;;;;;;5092793;28;20534;-70
2023/10/10 13:48:13;;;;;;;12.67;5.40;;;24.70;1.00;;;;;;5092375;28;20448;-71
2023/10/10 13:50:44;;;;;;;14.07;6.20;;;24.70;1.00;;;;;;5092601;28;20484;-70
2023/10/10 13:53:13;;;;;;;13.93;5.50;;;24.70;1.00;;;;;;5092221;28;20449;-71
2023/10/10 13:55:44;;;;;;;9.60;5.07;;;24.60;1.00;;;;;;5092404;28;20481;-71
2023/10/10 13:58:13;;;;;;;14.00;6.00;;;24.60;1.00;;;;;;5092123;28;20453;-71
2023/10/10 14:00:41;;;;;;;11.70;6.07;;;24.60;1.00;;;;;;5092094;28;20472;-71
2023/10/10 14:03:08;;;;;;;10.97;4.90;;;24.60;1.00;;;;;;5092151;28;20450;-70
2023/10/10 14:05:37;;;;;;;10.90;5.80;;;24.50;1.00;;;;;;5091599;28;20445;-71
2023/10/10 14:08:07;;;;;;;14.87;6.00;;;24.40;1.00;;;;;;5090993;28;20486;-70
2023/10/10 14:10:40;;;;;;;11.27;5.80;;;24.40;1.00;;;;;;5091993;28;20544;-70
2023/10/10 14:13:20;;;;;;;13.67;5.90;;;24.40;1.00;;;;;;5091737;28;20455;-70
2023/10/10 14:15:58;;;;;;;12.27;5.70;;;24.40;1.00;;;;;;5091921;28;20472;-71
2023/10/10 14:18:28;;;;;;;12.30;6.57;;;24.40;1.00;;;;;;5091852;28;20449;-70
2023/10/10 14:20:55;;;;;;;11.30;5.27;;;24.50;1.00;;;;;;5091777;28;20451;-70
2023/10/10 14:23:24;;;;;;;15.07;6.57;;;24.50;1.00;;;;;;5091860;28;20445;-76
2023/10/10 14:25:51;;;;;;;11.70;6.03;;;24.50;1.00;;;;;;5091764;28;20502;-76
2023/10/10 14:28:20;;;;;;;19.03;5.70;;;24.50;1.00;;;;;;5091985;28;20541;-75
2023/10/10 14:30:50;;;;;;;14.60;5.33;;;24.50;1.00;;;;;;5091701;28;20481;-76
2023/10/10 14:33:17;;;;;;;14.17;5.50;;;24.40;1.00;;;;;;5091649;28;20485;-75
2023/10/10 14:35:45;;;;;;;11.07;5.70;;;24.40;1.00;;;;;;5091582;28;20861;-76
2023/10/10 14:38:15;;;;;;;14.57;6.30;;;24.30;1.00;;;;;;5091659;28;20469;-75
2023/10/10 14:40:43;;;;;;;11.40;5.53;;;24.30;1.00;;;;;;5093534;28;20445;-76
2023/10/10 14:43:10;;;;;;;12.47;6.10;;;24.30;1.00;;;;;;5092953;28;20506;-70
2023/10/10 14:45:42;;;;;;;12.40;6.30;;;24.30;1.00;;;;;;5092367;28;20499;-70